Time;durP1;ratioP1;P1;durP2;ratioP2;P2;SDS_P1;SDS_P2;PMS_P1;PMS_P2;Temp;Humidity;BMP_temperature;BMP_pressure;BME280_temperature;BME280_humidity;BME280_pressure;Samples;Min_cycle;Max_cycle;Signal;HPM_P1;HPM_P2
2021/04/18 00:00:05;;;;;;;10.70;4.20;;;4.70;99.90;;;;;;5076371;28;20253;-76
2021/04/18 00:02:51;;;;;;;9.40;4.37;;;4.60;99.90;;;;;;5067461;28;20251;-73
2021/04/18 00:05:36;;;;;;;8.20;4.17;;;4.60;99.90;;;;;;5082978;28;20236;-76
2021/04/18 00:08:21;;;;;;;10.67;4.20;;;4.60;99.90;;;;;;5081467;28;20255;-75
2021/04/18 00:11:06;;;;;;;11.33;4.23;;;4.50;99.90;;;;;;5083799;28;20206;-78
2021/04/18 00:13:51;;;;;;;11.53;3.67;;;4.50;99.90;;;;;;5085077;28;20230;-75
2021/04/18 00:16:36;;;;;;;7.37;3.70;;;4.40;99.90;;;;;;5088755;28;20212;-75
2021/04/18 00:19:21;;;;;;;9.57;4.27;;;4.40;99.90;;;;;;5078761;28;20226;-78
2021/04/18 00:22:06;;;;;;;7.47;3.70;;;4.40;99.90;;;;;;5089415;28;20247;-77
2021/04/18 00:24:51;;;;;;;7.20;4.10;;;4.30;99.90;;;;;;5092111;28;20217;-77
2021/04/18 00:27:37;;;;;;;18.83;4.33;;;4.30;99.90;;;;;;5089760;28;20207;-76
2021/04/18 00:30:23;;;;;;;8.10;4.30;;;4.30;99.90;;;;;;5093123;28;20185;-77
2021/04/18 00:33:08;;;;;;;8.83;4.20;;;4.20;99.90;;;;;;5090462;28;20217;-77
2021/04/18 00:35:53;;;;;;;8.00;3.83;;;4.20;99.90;;;;;;5088293;28;20216;-75
2021/04/18 00:38:38;;;;;;;10.07;3.43;;;4.10;99.90;;;;;;5079860;28;20257;-78
2021/04/18 00:41:22;;;;;;;7.40;3.70;;;4.10;99.90;;;;;;5090550;28;20218;-78
2021/04/18 00:44:10;;;;;;;10.20;4.13;;;4.00;99.90;;;;;;5092369;28;20210;-73
2021/04/18 00:46:56;;;;;;;9.60;4.30;;;4.00;99.90;;;;;;5081585;28;20208;-76
2021/04/18 00:49:40;;;;;;;10.67;4.43;;;4.10;99.90;;;;;;5083929;28;20682;-76
2021/04/18 00:52:25;;;;;;;10.20;4.00;;;3.90;99.90;;;;;;5093814;28;20268;-76
2021/04/18 00:55:11;;;;;;;9.00;4.70;;;3.90;99.90;;;;;;5084241;28;20227;-77
2021/04/18 00:57:57;;;;;;;11.77;4.50;;;3.80;99.90;;;;;;5090380;28;20236;-78
2021/04/18 01:00:43;;;;;;;10.27;4.27;;;3.80;99.90;;;;;;5090640;28;20210;-76
2021/04/18 01:03:27;;;;;;;11.93;4.33;;;3.70;99.90;;;;;;5088041;28;20197;-77
2021/04/18 01:06:12;;;;;;;7.83;4.07;;;3.70;99.90;;;;;;5088098;28;20230;-77
2021/04/18 01:08:57;;;;;;;9.70;4.23;;;3.70;99.90;;;;;;5091468;28;20232;-76
2021/04/18 01:11:42;;;;;;;14.87;5.67;;;3.60;99.90;;;;;;5085290;28;20207;-73
2021/04/18 01:14:30;;;;;;;10.03;4.40;;;3.60;99.90;;;;;;5072628;28;20280;-72
2021/04/18 01:17:16;;;;;;;13.10;4.73;;;3.60;99.90;;;;;;5087511;28;20226;-76
2021/04/18 01:20:03;;;;;;;13.40;4.73;;;3.50;99.90;;;;;;5079589;28;20262;-76
2021/04/18 01:22:49;;;;;;;11.40;4.40;;;3.40;99.90;;;;;;5074730;28;20310;-75
2021/04/18 01:25:33;;;;;;;9.77;4.47;;;3.40;99.90;;;;;;5084071;28;20211;-76
2021/04/18 01:28:19;;;;;;;8.40;4.23;;;3.40;99.90;;;;;;5082649;28;20231;-75
2021/04/18 01:31:04;;;;;;;11.57;4.93;;;3.40;99.90;;;;;;5076557;28;20206;-76
2021/04/18 01:33:49;;;;;;;10.40;4.40;;;3.30;99.90;;;;;;5080364;28;20254;-76
2021/04/18 01:36:34;;;;;;;9.17;4.80;;;3.20;99.90;;;;;;5089201;28;20269;-77
2021/04/18 01:39:20;;;;;;;16.07;5.57;;;3.30;99.90;;;;;;5080022;28;20254;-75
2021/04/18 01:42:06;;;;;;;12.10;4.70;;;3.20;99.90;;;;;;5073868;28;20263;-76
2021/04/18 01:44:51;;;;;;;12.00;5.03;;;3.20;99.90;;;;;;5076993;28;20280;-76
2021/04/18 01:47:37;;;;;;;12.90;5.60;;;3.10;99.90;;;;;;5080481;28;20241;-76
2021/04/18 01:50:21;;;;;;;16.97;6.07;;;3.00;99.90;;;;;;5088544;28;20288;-76
2021/04/18 01:53:07;;;;;;;14.30;5.77;;;3.10;99.90;;;;;;5085881;28;20218;-76
2021/04/18 01:55:53;;;;;;;9.90;5.27;;;3.10;99.90;;;;;;5085342;28;20212;-76
2021/04/18 01:58:38;;;;;;;10.47;5.53;;;3.10;99.90;;;;;;5088082;28;20233;-76
2021/04/18 02:01:23;;;;;;;13.03;6.03;;;3.10;99.90;;;;;;5088938;28;20892;-75
2021/04/18 02:04:20;;;;;;;9.43;5.30;;;3.00;99.90;;;;;;5076678;28;20198;-77
2021/04/18 02:07:06;;;;;;;13.10;6.20;;;3.00;99.90;;;;;;5073049;28;20211;-76
2021/04/18 02:09:51;;;;;;;12.90;5.93;;;3.00;99.90;;;;;;5071903;28;20233;-76
2021/04/18 02:12:37;;;;;;;13.50;5.87;;;3.00;99.90;;;;;;5058796;28;20626;-76
2021/04/18 02:15:22;;;;;;;15.23;6.00;;;3.00;99.90;;;;;;5065460;28;20252;-76
2021/04/18 02:18:06;;;;;;;13.07;5.87;;;3.00;99.90;;;;;;5070410;28;20235;-76
2021/04/18 02:20:55;;;;;;;17.23;6.37;;;3.00;99.90;;;;;;5065931;28;20258;-76
2021/04/18 02:23:40;;;;;;;17.63;5.83;;;3.00;99.90;;;;;;5061392;28;20620;-76
2021/04/18 02:26:24;;;;;;;18.70;6.10;;;2.90;99.90;;;;;;5053242;28;20207;-76
2021/04/18 02:29:10;;;;;;;15.50;5.97;;;2.90;99.90;;;;;;5065662;28;20228;-76
2021/04/18 02:31:55;;;;;;;15.67;5.90;;;2.90;99.90;;;;;;5062580;28;20211;-76
2021/04/18 02:34:40;;;;;;;14.07;5.60;;;2.90;99.90;;;;;;5065121;28;20203;-76
2021/04/18 02:37:24;;;;;;;18.00;6.27;;;2.90;99.90;;;;;;5070400;28;20734;-76
2021/04/18 02:40:10;;;;;;;13.53;6.03;;;2.90;99.90;;;;;;5063124;28;20292;-76
2021/04/18 02:42:55;;;;;;;13.83;5.60;;;2.90;99.90;;;;;;5070507;28;20240;-76
2021/04/18 02:45:41;;;;;;;14.13;6.40;;;2.90;99.90;;;;;;5070819;28;20298;-76
2021/04/18 02:48:25;;;;;;;15.80;5.97;;;2.80;99.90;;;;;;5062086;28;20730;-76
2021/04/18 02:51:10;;;;;;;11.67;5.33;;;2.90;99.90;;;;;;5063508;28;20687;-76
2021/04/18 02:53:58;;;;;;;14.43;6.10;;;2.80;99.90;;;;;;5066241;28;20594;-76
2021/04/18 02:56:43;;;;;;;12.83;5.73;;;2.80;99.90;;;;;;5066160;28;20241;-76
2021/04/18 02:59:28;;;;;;;12.90;6.57;;;2.80;99.90;;;;;;5070798;28;20763;-76
2021/04/18 03:02:13;;;;;;;15.40;5.63;;;2.70;99.90;;;;;;5070515;28;20203;-76
2021/04/18 03:05:00;;;;;;;14.70;5.70;;;2.70;99.90;;;;;;5064490;28;20210;-76
2021/04/18 03:07:45;;;;;;;13.70;5.83;;;2.70;99.90;;;;;;5068398;28;20210;-77
2021/04/18 03:10:29;;;;;;;18.07;6.83;;;2.70;99.90;;;;;;5070631;28;20626;-76
2021/04/18 03:13:14;;;;;;;14.73;5.63;;;2.70;99.90;;;;;;5069978;28;20238;-76
2021/04/18 03:15:58;;;;;;;15.67;7.17;;;2.70;99.90;;;;;;5059433;28;20239;-76
2021/04/18 03:18:44;;;;;;;19.07;7.03;;;2.60;99.90;;;;;;5064952;28;20248;-76
2021/04/18 03:21:29;;;;;;;17.60;7.67;;;2.70;99.90;;;;;;5068124;28;20252;-76
2021/04/18 03:24:13;;;;;;;17.27;8.37;;;2.70;99.90;;;;;;5070213;28;20657;-76
2021/04/18 03:26:58;;;;;;;20.03;7.53;;;2.60;99.90;;;;;;5070862;28;20207;-76
2021/04/18 03:29:43;;;;;;;16.23;7.47;;;2.60;99.90;;;;;;5061404;28;20294;-77
2021/04/18 03:32:27;;;;;;;19.57;7.87;;;2.60;99.90;;;;;;5068990;28;20630;-76
2021/04/18 03:35:14;;;;;;;19.40;7.17;;;2.70;99.90;;;;;;5068845;28;20564;-76
2021/04/18 03:38:00;;;;;;;17.97;7.83;;;2.60;99.90;;;;;;5063030;28;20296;-76
2021/04/18 03:40:45;;;;;;;14.37;7.20;;;2.60;99.90;;;;;;5062974;28;20582;-76
2021/04/18 03:43:30;;;;;;;14.90;7.53;;;2.60;99.90;;;;;;5070159;28;20210;-76
2021/04/18 03:46:15;;;;;;;15.87;7.43;;;2.60;99.90;;;;;;5067219;28;20565;-76
2021/04/18 03:49:00;;;;;;;17.40;6.63;;;2.70;99.90;;;;;;5070506;28;20359;-76
2021/04/18 03:51:45;;;;;;;14.70;6.83;;;2.60;99.90;;;;;;5069635;28;20206;-77
2021/04/18 03:54:30;;;;;;;19.70;7.20;;;2.60;99.90;;;;;;5059081;28;20742;-76
2021/04/18 03:57:15;;;;;;;15.07;6.63;;;2.60;99.90;;;;;;5066341;28;20214;-76
2021/04/18 04:00:00;;;;;;;15.17;7.00;;;2.50;99.90;;;;;;5073487;28;20264;-76
2021/04/18 04:02:44;;;;;;;18.17;7.23;;;2.50;99.90;;;;;;5073141;28;20206;-76
2021/04/18 04:05:29;;;;;;;14.00;6.20;;;2.50;99.90;;;;;;5063800;28;20265;-76
2021/04/18 04:08:15;;;;;;;15.23;7.43;;;2.40;99.90;;;;;;5075119;28;20225;-76
2021/04/18 04:11:00;;;;;;;13.40;7.30;;;2.40;99.90;;;;;;5090295;28;20198;-75
2021/04/18 04:13:44;;;;;;;14.13;7.50;;;2.40;99.90;;;;;;5094213;28;20237;-76
2021/04/18 04:16:29;;;;;;;18.50;7.13;;;2.40;99.90;;;;;;5095670;28;20198;-76
2021/04/18 04:19:14;;;;;;;15.77;7.77;;;2.40;99.90;;;;;;5076609;28;20222;-77
2021/04/18 04:21:59;;;;;;;16.90;7.03;;;2.30;99.90;;;;;;5066215;28;20209;-76
2021/04/18 04:24:44;;;;;;;16.53;7.07;;;2.30;99.90;;;;;;5072715;28;20454;-77
2021/04/18 04:27:30;;;;;;;15.70;8.17;;;2.30;99.90;;;;;;5066323;28;20207;-76
2021/04/18 04:30:15;;;;;;;16.63;7.93;;;2.30;99.90;;;;;;5059933;28;20731;-77
2021/04/18 04:33:00;;;;;;;14.20;7.60;;;2.20;99.90;;;;;;5072864;28;20663;-76
2021/04/18 04:35:45;;;;;;;15.53;7.57;;;2.30;99.90;;;;;;5072009;28;20691;-76
2021/04/18 04:38:31;;;;;;;19.70;7.83;;;2.20;99.90;;;;;;5070410;28;21170;-76
2021/04/18 04:41:17;;;;;;;16.47;7.50;;;2.20;99.90;;;;;;5067172;28;20202;-76
2021/04/18 04:44:02;;;;;;;14.67;7.43;;;2.20;99.90;;;;;;5072226;28;20245;-77
2021/04/18 04:46:47;;;;;;;15.00;7.43;;;2.10;99.90;;;;;;5064055;28;20230;-76
2021/04/18 04:49:32;;;;;;;14.03;7.80;;;2.10;99.90;;;;;;5072958;28;20230;-77
2021/04/18 04:52:16;;;;;;;17.23;8.53;;;2.10;99.90;;;;;;5062438;28;20261;-76
2021/04/18 04:55:01;;;;;;;17.30;7.57;;;2.10;99.90;;;;;;5068759;28;20202;-76
2021/04/18 04:57:46;;;;;;;15.00;7.43;;;2.10;99.90;;;;;;5069708;28;20569;-76
2021/04/18 05:00:31;;;;;;;14.87;7.73;;;2.00;99.90;;;;;;5072593;28;20206;-77
2021/04/18 05:03:16;;;;;;;19.10;8.77;;;2.10;99.90;;;;;;5066988;28;20303;-77
2021/04/18 05:06:01;;;;;;;21.23;9.37;;;2.00;99.90;;;;;;5066933;28;20283;-76
2021/04/18 05:08:45;;;;;;;20.03;9.00;;;2.10;99.90;;;;;;5070152;28;20284;-76
2021/04/18 05:11:30;;;;;;;17.23;8.97;;;2.10;99.90;;;;;;5070971;28;20664;-76
2021/04/18 05:14:15;;;;;;;20.37;9.37;;;2.10;99.90;;;;;;5072634;28;20308;-76
2021/04/18 05:17:00;;;;;;;23.97;9.37;;;2.10;99.90;;;;;;5059535;28;20337;-78
2021/04/18 05:19:45;;;;;;;20.60;9.23;;;2.10;99.90;;;;;;5067265;28;20226;-76
2021/04/18 05:22:29;;;;;;;18.30;9.07;;;2.10;99.90;;;;;;5072141;28;20210;-76
2021/04/18 05:25:15;;;;;;;20.40;9.73;;;2.10;99.90;;;;;;5064316;28;20207;-76
2021/04/18 05:28:00;;;;;;;22.60;9.70;;;2.10;99.90;;;;;;5066636;28;20215;-76
2021/04/18 05:30:45;;;;;;;19.27;9.27;;;2.10;99.90;;;;;;5066982;28;20267;-76
2021/04/18 05:33:30;;;;;;;17.63;9.73;;;2.10;99.90;;;;;;5068220;28;20295;-78
2021/04/18 05:36:15;;;;;;;27.53;9.07;;;2.20;99.90;;;;;;5068397;28;20206;-79
2021/04/18 05:39:00;;;;;;;21.77;9.77;;;2.20;99.90;;;;;;5072986;28;20280;-78
2021/04/18 05:41:45;;;;;;;20.20;9.83;;;2.20;99.90;;;;;;5073874;28;20206;-77
2021/04/18 05:44:30;;;;;;;18.80;10.40;;;2.20;99.90;;;;;;5075209;28;20218;-78
2021/04/18 05:47:15;;;;;;;20.90;9.57;;;2.30;99.90;;;;;;5075384;28;20261;-76
2021/04/18 05:50:01;;;;;;;23.37;11.83;;;2.30;99.90;;;;;;5078087;28;20221;-77
2021/04/18 05:52:46;;;;;;;23.87;11.97;;;2.30;99.90;;;;;;5064041;28;20550;-78
2021/04/18 05:55:31;;;;;;;28.03;13.97;;;2.30;99.90;;;;;;5073763;28;20214;-77
2021/04/18 05:58:16;;;;;;;29.70;13.80;;;2.40;99.90;;;;;;5076423;28;20238;-77
2021/04/18 06:01:01;;;;;;;25.23;13.60;;;2.40;99.90;;;;;;5073882;28;20198;-79
2021/04/18 06:03:46;;;;;;;33.63;14.23;;;2.50;99.90;;;;;;5074925;28;20262;-77
2021/04/18 06:06:31;;;;;;;29.20;15.27;;;2.60;99.90;;;;;;5075289;28;20578;-78
2021/04/18 06:09:16;;;;;;;33.90;15.20;;;2.60;99.90;;;;;;5074784;28;20226;-77
2021/04/18 06:12:01;;;;;;;26.43;14.83;;;2.70;99.90;;;;;;5074869;28;20253;-77
2021/04/18 06:14:45;;;;;;;29.37;15.70;;;2.80;99.90;;;;;;5076546;28;20288;-78
2021/04/18 06:17:30;;;;;;;34.57;17.80;;;2.80;99.90;;;;;;5069537;28;20233;-78
2021/04/18 06:20:16;;;;;;;30.70;16.47;;;2.90;99.90;;;;;;5075949;28;20679;-78
2021/04/18 06:23:01;;;;;;;36.73;18.70;;;3.00;99.90;;;;;;5070665;28;20984;-79
2021/04/18 06:25:46;;;;;;;31.70;19.03;;;3.00;99.90;;;;;;5070650;28;20206;-79
2021/04/18 06:28:30;;;;;;;43.50;21.53;;;3.10;99.90;;;;;;5072687;28;20586;-79
2021/04/18 06:31:15;;;;;;;38.47;20.27;;;3.20;99.90;;;;;;5077248;28;20229;-78
2021/04/18 06:34:00;;;;;;;41.37;22.80;;;3.30;99.90;;;;;;5076613;28;20217;-78
2021/04/18 06:36:46;;;;;;;39.27;23.50;;;3.40;99.90;;;;;;5065285;28;20209;-78
2021/04/18 06:39:31;;;;;;;45.57;24.97;;;3.50;99.90;;;;;;5077424;28;20249;-78
2021/04/18 06:42:17;;;;;;;48.33;25.43;;;3.60;99.90;;;;;;5077577;28;20222;-78
2021/04/18 06:45:03;;;;;;;49.47;26.07;;;3.70;99.90;;;;;;5069993;28;20226;-77
2021/04/18 06:47:48;;;;;;;46.73;25.17;;;3.80;99.90;;;;;;5077894;28;20213;-78
2021/04/18 06:50:33;;;;;;;50.03;26.40;;;3.90;99.90;;;;;;5072749;28;20206;-77
2021/04/18 06:53:18;;;;;;;44.87;26.33;;;4.00;99.90;;;;;;5074231;28;20235;-79
2021/04/18 06:56:04;;;;;;;47.30;25.07;;;4.00;99.90;;;;;;5073686;28;20203;-79
2021/04/18 06:58:49;;;;;;;50.20;25.47;;;4.10;99.90;;;;;;5073045;28;20275;-78
2021/04/18 07:01:35;;;;;;;50.03;26.43;;;4.20;99.90;;;;;;5074903;28;20279;-78
2021/04/18 07:04:22;;;;;;;46.40;26.60;;;4.40;99.90;;;;;;5067908;28;20206;-78
2021/04/18 07:07:07;;;;;;;48.40;27.73;;;4.40;99.90;;;;;;5070225;28;20214;-78
2021/04/18 07:09:54;;;;;;;51.20;30.93;;;4.50;99.90;;;;;;5060188;28;20327;-78
2021/04/18 07:12:39;;;;;;;57.10;33.77;;;4.60;99.90;;;;;;5068578;28;20210;-78
2021/04/18 07:15:37;;;;;;;59.37;33.07;;;4.70;99.90;;;;;;5072604;28;20199;-78
2021/04/18 07:18:38;;;;;;;52.90;32.20;;;4.90;99.90;;;;;;5072892;28;20225;-77
2021/04/18 07:21:24;;;;;;;50.40;31.23;;;5.00;99.90;;;;;;5067156;28;20699;-78
2021/04/18 07:24:09;;;;;;;46.57;29.60;;;5.10;99.90;;;;;;5068456;28;20252;-77
2021/04/18 07:26:57;;;;;;;38.47;23.53;;;5.20;99.90;;;;;;5073250;28;20225;-78
2021/04/18 07:29:42;;;;;;;41.67;28.03;;;5.30;99.90;;;;;;5071590;28;20262;-79
2021/04/18 07:32:28;;;;;;;40.37;25.50;;;5.40;99.90;;;;;;5066818;28;20267;-78
2021/04/18 07:35:31;;;;;;;37.60;24.07;;;5.50;99.90;;;;;;5074112;28;20256;-78
2021/04/18 07:38:19;;;;;;;40.63;24.67;;;5.60;99.90;;;;;;5066441;28;20222;-78
2021/04/18 07:41:16;;;;;;;36.03;23.57;;;5.80;99.90;;;;;;5073452;28;20233;-78
2021/04/18 07:44:02;;;;;;;36.10;23.67;;;5.90;99.90;;;;;;5072634;28;20202;-78
2021/04/18 07:46:49;;;;;;;34.27;21.70;;;6.00;99.90;;;;;;5070762;28;20221;-78
2021/04/18 07:49:34;;;;;;;32.23;21.63;;;6.10;99.90;;;;;;5068821;28;20276;-78
2021/04/18 07:52:19;;;;;;;29.13;19.13;;;6.20;99.90;;;;;;5072450;28;20201;-78
2021/04/18 07:55:05;;;;;;;29.63;19.03;;;6.40;99.90;;;;;;5076792;28;20362;-77
2021/04/18 07:57:51;;;;;;;26.67;18.03;;;6.50;99.90;;;;;;5078484;28;20229;-79
2021/04/18 08:00:37;;;;;;;24.83;14.20;;;6.60;99.90;;;;;;5079461;28;20213;-77
2021/04/18 08:03:22;;;;;;;24.93;16.00;;;6.70;99.90;;;;;;5073537;28;20740;-78
2021/04/18 08:06:07;;;;;;;27.33;15.83;;;6.80;99.90;;;;;;5082554;28;20673;-79
2021/04/18 08:08:54;;;;;;;21.47;13.83;;;7.00;99.90;;;;;;5069489;28;20237;-79
2021/04/18 08:11:39;;;;;;;23.10;14.13;;;7.10;99.90;;;;;;5080824;28;20654;-78
2021/04/18 08:14:24;;;;;;;19.10;12.67;;;7.20;99.90;;;;;;5078790;28;20275;-78
2021/04/18 08:17:11;;;;;;;16.53;11.20;;;7.30;99.90;;;;;;5080255;28;20213;-77
2021/04/18 08:19:58;;;;;;;16.73;10.20;;;7.50;99.90;;;;;;5084448;28;20233;-78
2021/04/18 08:23:04;;;;;;;20.47;11.70;;;7.60;99.90;;;;;;5076119;28;20210;-77
2021/04/18 08:26:15;;;;;;;18.60;10.73;;;7.70;99.90;;;;;;5082160;28;20245;-79
2021/04/18 08:29:09;;;;;;;16.47;11.10;;;7.90;99.90;;;;;;5075242;28;20217;-79
2021/04/18 08:32:08;;;;;;;16.03;9.33;;;8.00;99.90;;;;;;5076558;28;20218;-78
2021/04/18 08:35:11;;;;;;;14.07;9.10;;;8.10;99.90;;;;;;5071025;28;20260;-78
2021/04/18 08:38:20;;;;;;;16.83;10.57;;;8.30;99.90;;;;;;5072955;28;20253;-79
2021/04/18 08:41:06;;;;;;;19.17;10.40;;;8.40;99.90;;;;;;5070106;28;20292;-80
2021/04/18 08:44:15;;;;;;;15.53;10.30;;;8.50;99.90;;;;;;5075471;28;20209;-79
2021/04/18 08:47:03;;;;;;;20.53;10.23;;;8.70;99.90;;;;;;5074096;28;20206;-79
2021/04/18 08:49:50;;;;;;;14.27;9.03;;;8.80;99.90;;;;;;5077831;28;20244;-79
2021/04/18 08:52:36;;;;;;;17.67;9.63;;;9.00;99.90;;;;;;5078141;28;20266;-79
2021/04/18 08:55:21;;;;;;;13.10;8.43;;;9.20;99.90;;;;;;5075327;28;20248;-79
2021/04/18 08:58:06;;;;;;;13.57;8.23;;;9.30;99.90;;;;;;5069417;28;20302;-80
2021/04/18 09:00:51;;;;;;;16.27;8.30;;;9.50;99.90;;;;;;5076784;28;20640;-79
2021/04/18 09:03:37;;;;;;;14.90;7.93;;;9.60;99.90;;;;;;5078846;28;20213;-79
2021/04/18 09:06:32;;;;;;;12.03;6.70;;;9.80;99.90;;;;;;5072126;28;20210;-79
2021/04/18 09:09:18;;;;;;;13.37;6.90;;;9.90;99.90;;;;;;5076420;28;20226;-79
2021/04/18 09:12:04;;;;;;;14.17;7.53;;;10.20;99.90;;;;;;5078829;28;20253;-79
2021/04/18 09:14:49;;;;;;;11.60;6.97;;;10.30;99.90;;;;;;5069365;28;20480;-79
2021/04/18 09:17:38;;;;;;;13.23;7.10;;;10.50;99.90;;;;;;5079201;28;20226;-80
2021/04/18 09:20:23;;;;;;;10.90;6.77;;;10.70;99.90;;;;;;5079854;28;20238;-79
2021/04/18 09:23:08;;;;;;;14.00;6.67;;;11.00;99.90;;;;;;5073756;28;20203;-81
2021/04/18 09:26:11;;;;;;;12.07;6.20;;;11.40;99.90;;;;;;5078103;28;20280;-81
2021/04/18 09:29:06;;;;;;;12.77;6.43;;;11.80;99.90;;;;;;5079814;28;20587;-80
2021/04/18 09:31:57;;;;;;;9.53;5.33;;;12.50;99.90;;;;;;5074851;28;20216;-78
2021/04/18 09:34:44;;;;;;;9.30;5.53;;;13.20;99.90;;;;;;5078203;28;20773;-80
2021/04/18 09:37:31;;;;;;;9.50;5.27;;;14.00;99.90;;;;;;5079968;28;20251;-80
2021/04/18 09:40:17;;;;;;;10.23;4.80;;;14.80;99.90;;;;;;5075175;28;20214;-79
2021/04/18 09:43:06;;;;;;;8.87;4.80;;;15.70;99.90;;;;;;5079100;28;20257;-80
2021/04/18 09:45:59;;;;;;;8.07;4.77;;;16.40;99.90;;;;;;5075050;28;20731;-79
2021/04/18 09:48:57;;;;;;;10.93;4.47;;;17.00;99.90;;;;;;5072973;28;20226;-79
2021/04/18 09:51:56;;;;;;;8.63;4.47;;;17.50;99.90;;;;;;5080457;28;20226;-79
2021/04/18 09:54:41;;;;;;;8.43;4.83;;;18.00;99.90;;;;;;5071863;28;21366;-79
2021/04/18 09:57:26;;;;;;;8.77;4.53;;;18.40;99.90;;;;;;5079260;28;20306;-80
2021/04/18 10:00:17;;;;;;;9.87;4.60;;;18.80;99.90;;;;;;5079283;28;20235;-80
2021/04/18 10:03:06;;;;;;;9.23;5.00;;;19.60;99.90;;;;;;5071738;28;20202;-79
2021/04/18 10:05:59;;;;;;;7.17;4.57;;;20.40;98.90;;;;;;5073973;28;20209;-80
2021/04/18 10:08:55;;;;;;;8.20;4.70;;;21.20;95.90;;;;;;5079882;28;20335;-80
2021/04/18 10:11:40;;;;;;;7.87;4.80;;;21.90;91.60;;;;;;5072391;28;20287;-79
2021/04/18 10:14:25;;;;;;;7.90;4.70;;;22.60;86.60;;;;;;5070519;28;20297;-82
2021/04/18 10:17:10;;;;;;;10.07;5.10;;;23.40;81.90;;;;;;5066392;28;20211;-81
2021/04/18 10:19:54;;;;;;;7.57;4.00;;;24.00;80.00;;;;;;5079738;28;20244;-80
2021/04/18 10:23:04;;;;;;;6.20;4.23;;;24.70;74.60;;;;;;5074818;28;20206;-81
2021/04/18 10:25:50;;;;;;;10.00;4.70;;;25.40;75.00;;;;;;5079009;28;20248;-80
2021/04/18 10:28:35;;;;;;;5.32;3.90;;;26.10;68.90;;;;;;5079050;28;20292;-79
2021/04/18 10:31:22;;;;;;;9.02;4.55;;;26.50;66.50;;;;;;5073399;28;20294;-80
2021/04/18 10:34:07;;;;;;;4.38;3.72;;;27.30;62.10;;;;;;5074131;28;20703;-81
2021/04/18 10:36:53;;;;;;;6.72;3.97;;;27.80;61.40;;;;;;5076671;28;20621;-81
2021/04/18 10:39:38;;;;;;;6.80;4.10;;;28.40;56.30;;;;;;5075161;28;20248;-80
2021/04/18 10:42:24;;;;;;;8.88;4.18;;;28.90;55.30;;;;;;5075589;28;20208;-79
2021/04/18 10:45:11;;;;;;;6.10;4.38;;;29.30;53.50;;;;;;5067818;28;20300;-80
2021/04/18 10:47:56;;;;;;;6.60;3.83;;;29.70;51.00;;;;;;5072065;28;20214;-80
2021/04/18 10:50:40;;;;;;;4.75;3.35;;;30.00;50.10;;;;;;5076653;28;20251;-80
2021/04/18 10:53:25;;;;;;;9.35;4.40;;;30.40;49.30;;;;;;5058116;28;20270;-80
2021/04/18 10:56:10;;;;;;;6.00;4.38;;;30.60;47.10;;;;;;5071522;28;20208;-80
2021/04/18 10:58:56;;;;;;;5.00;3.90;;;30.90;48.60;;;;;;5071016;28;20245;-81
2021/04/18 11:01:41;;;;;;;6.90;3.70;;;31.10;45.70;;;;;;5076141;28;20225;-80
2021/04/18 11:04:26;;;;;;;9.13;3.95;;;31.30;45.40;;;;;;5076246;28;20202;-81
2021/04/18 11:07:10;;;;;;;6.15;4.10;;;31.50;47.50;;;;;;5076103;28;20652;-79
2021/04/18 11:09:55;;;;;;;8.50;4.13;;;31.70;45.60;;;;;;5065687;28;20720;-81
2021/04/18 11:12:41;;;;;;;6.05;3.88;;;31.90;44.50;;;;;;5071917;28;20209;-80
2021/04/18 11:15:27;;;;;;;5.28;3.50;;;32.20;43.60;;;;;;5065454;28;20302;-81
2021/04/18 11:18:12;;;;;;;5.95;3.75;;;32.40;43.60;;;;;;5081054;28;20248;-82
2021/04/18 11:20:57;;;;;;;8.27;3.83;;;32.60;45.20;;;;;;5076979;28;20201;-81
2021/04/18 11:23:42;;;;;;;6.47;4.05;;;32.80;44.50;;;;;;5074228;28;20224;-81
2021/04/18 11:26:27;;;;;;;4.30;3.88;;;33.10;42.80;;;;;;5080791;28;20256;-80
2021/04/18 11:29:12;;;;;;;8.98;4.18;;;33.40;41.90;;;;;;5075266;28;20707;-80
2021/04/18 11:31:57;;;;;;;4.80;3.55;;;33.60;42.50;;;;;;5080281;28;20249;-80
2021/04/18 11:34:42;;;;;;;5.68;3.92;;;33.80;41.90;;;;;;5072763;28;20280;-79
2021/04/18 11:37:27;;;;;;;6.13;3.88;;;34.00;40.50;;;;;;5081693;28;20729;-82
2021/04/18 11:40:14;;;;;;;5.80;4.07;;;34.30;42.30;;;;;;5088158;28;20193;-76
2021/04/18 11:42:59;;;;;;;6.57;4.85;;;34.50;40.20;;;;;;5092245;28;20205;-78
2021/04/18 11:45:44;;;;;;;8.73;4.70;;;34.70;39.30;;;;;;5088387;28;20520;-75
2021/04/18 11:48:30;;;;;;;4.63;4.03;;;34.80;39.30;;;;;;5091272;28;20206;-77
2021/04/18 11:51:15;;;;;;;6.60;4.70;;;35.00;41.20;;;;;;5083701;28;20213;-81
2021/04/18 11:54:00;;;;;;;7.57;4.82;;;35.10;39.90;;;;;;5078489;28;20269;-82
2021/04/18 11:56:45;;;;;;;8.57;4.75;;;35.10;39.20;;;;;;5075651;28;20219;-77
2021/04/18 11:59:29;;;;;;;8.43;4.93;;;34.90;40.00;;;;;;5078253;28;20276;-80
2021/04/18 12:02:14;;;;;;;5.72;4.45;;;34.50;40.60;;;;;;5083051;28;20317;-81
2021/04/18 12:05:00;;;;;;;10.60;4.80;;;34.00;42.30;;;;;;5071204;28;20215;-80
2021/04/18 12:07:44;;;;;;;7.50;5.13;;;33.40;40.30;;;;;;5073280;28;20259;-76
2021/04/18 12:10:32;;;;;;;8.82;5.10;;;32.70;40.40;;;;;;5070524;28;20206;-81
2021/04/18 12:13:17;;;;;;;7.57;5.25;;;32.10;41.70;;;;;;5067520;28;20600;-81
2021/04/18 12:16:02;;;;;;;9.10;5.45;;;31.30;42.00;;;;;;5077326;28;20651;-83
2021/04/18 12:18:48;;;;;;;7.88;5.95;;;30.60;42.40;;;;;;5074968;28;20245;-82
2021/04/18 12:21:33;;;;;;;10.40;5.60;;;30.00;44.20;;;;;;5077816;28;20225;-81
2021/04/18 12:24:19;;;;;;;8.45;5.35;;;29.30;45.90;;;;;;5081744;28;20735;-78
2021/04/18 12:27:04;;;;;;;7.85;5.50;;;28.70;46.80;;;;;;5062851;28;20260;-82
2021/04/18 12:29:49;;;;;;;9.10;5.18;;;28.40;46.60;;;;;;5074105;28;20240;-83
2021/04/18 12:32:34;;;;;;;7.30;4.68;;;28.20;46.70;;;;;;5080815;28;20216;-83
2021/04/18 12:35:19;;;;;;;8.50;5.55;;;28.30;47.20;;;;;;5065303;28;20232;-83
2021/04/18 12:38:05;;;;;;;7.50;4.95;;;28.50;47.30;;;;;;5076528;28;20231;-83
2021/04/18 12:40:50;;;;;;;11.70;6.13;;;28.70;47.40;;;;;;5064871;28;20244;-80
2021/04/18 12:43:35;;;;;;;8.00;5.60;;;28.80;46.10;;;;;;5082597;28;20261;-82
2021/04/18 12:46:20;;;;;;;7.40;4.72;;;28.90;46.90;;;;;;5073586;28;20204;-82
2021/04/18 12:49:05;;;;;;;10.23;5.55;;;29.10;46.60;;;;;;5083385;28;20244;-82
2021/04/18 12:51:51;;;;;;;7.68;5.40;;;29.30;46.40;;;;;;5078814;28;20929;-80
2021/04/18 12:54:36;;;;;;;11.35;5.72;;;29.50;46.40;;;;;;5073430;28;20366;-83
2021/04/18 12:57:22;;;;;;;8.27;5.05;;;29.70;46.20;;;;;;5083208;28;20210;-81
2021/04/18 13:00:09;;;;;;;9.55;5.13;;;29.70;45.80;;;;;;5082673;28;20233;-81
2021/04/18 13:02:55;;;;;;;8.57;5.15;;;29.80;46.30;;;;;;5082047;28;20241;-80
2021/04/18 13:05:41;;;;;;;10.65;6.25;;;29.70;46.90;;;;;;5072460;28;20212;-80
2021/04/18 13:08:26;;;;;;;8.15;5.15;;;29.80;47.80;;;;;;5081765;28;20241;-82
2021/04/18 13:11:12;;;;;;;10.45;5.78;;;30.00;46.00;;;;;;5081386;28;20214;-81
2021/04/18 13:13:57;;;;;;;7.60;5.70;;;30.10;45.00;;;;;;5074525;28;20250;-82
2021/04/18 13:16:42;;;;;;;12.57;6.10;;;30.30;43.90;;;;;;5077023;28;20206;-82
2021/04/18 13:19:27;;;;;;;8.75;5.85;;;30.60;46.40;;;;;;5075251;28;20233;-83
2021/04/18 13:22:12;;;;;;;8.57;5.35;;;30.70;44.20;;;;;;5068862;28;20218;-82
2021/04/18 13:24:58;;;;;;;9.80;5.72;;;30.70;44.60;;;;;;5081187;28;20258;-79
2021/04/18 13:27:44;;;;;;;8.90;6.00;;;30.60;46.10;;;;;;5059733;28;20234;-81
2021/04/18 13:30:29;;;;;;;9.20;6.15;;;30.60;45.60;;;;;;5077065;28;20210;-83
2021/04/18 13:33:14;;;;;;;10.55;8.57;;;30.10;45.10;;;;;;5069917;28;20209;-82
2021/04/18 13:35:59;;;;;;;8.27;6.32;;;29.90;47.90;;;;;;5066888;28;20281;-80
2021/04/18 13:38:44;;;;;;;9.85;5.93;;;30.00;45.30;;;;;;5078957;28;20238;-82
2021/04/18 13:41:29;;;;;;;10.60;6.88;;;30.10;47.10;;;;;;5076375;28;20229;-80
2021/04/18 13:44:16;;;;;;;5.95;4.47;;;30.40;46.30;;;;;;5073226;28;20268;-83
2021/04/18 13:47:01;;;;;;;6.82;4.00;;;30.60;45.40;;;;;;5072994;28;20712;-81
2021/04/18 13:49:46;;;;;;;17.80;4.80;;;30.50;45.20;;;;;;5077175;28;20248;-82
2021/04/18 13:52:31;;;;;;;7.68;3.83;;;30.50;44.90;;;;;;5069856;28;20206;-80
2021/04/18 13:55:17;;;;;;;4.93;3.33;;;30.30;44.70;;;;;;5067559;28;20306;-81
2021/04/18 13:58:02;;;;;;;7.68;3.60;;;30.20;44.50;;;;;;5069897;28;20220;-81
2021/04/18 14:00:47;;;;;;;5.07;2.83;;;30.00;44.30;;;;;;5073637;28;20209;-83
2021/04/18 14:03:33;;;;;;;5.22;3.05;;;29.80;46.40;;;;;;5074261;28;20228;-81
2021/04/18 14:06:18;;;;;;;5.65;3.97;;;29.60;44.40;;;;;;5075427;28;20686;-79
2021/04/18 14:09:04;;;;;;;5.53;4.07;;;29.40;45.40;;;;;;5069767;28;20244;-80
2021/04/18 14:11:50;;;;;;;5.28;3.40;;;29.20;47.90;;;;;;5074769;28;20215;-82
2021/04/18 14:14:36;;;;;;;7.18;3.95;;;28.90;46.30;;;;;;5080095;28;20219;-81
2021/04/18 14:17:21;;;;;;;10.70;4.60;;;28.70;46.60;;;;;;5069926;28;20206;-83
2021/04/18 14:20:08;;;;;;;7.10;4.05;;;28.40;45.70;;;;;;5068470;28;20225;-82
2021/04/18 14:22:53;;;;;;;7.50;4.47;;;28.30;47.00;;;;;;5080971;28;20240;-82